sensor_id;sensor_type;location;lat;lon;timestamp;temperature;humidity
25616;DHT22;13482;48.234;13.006;2022-08-19T00:00:37;23.50;66.30
25616;DHT22;13482;48.234;13.006;2022-08-19T00:03:05;23.50;66.40
25616;DHT22;13482;48.234;13.006;2022-08-19T00:05:33;23.50;66.50
25616;DHT22;13482;48.234;13.006;2022-08-19T00:08:09;23.40;66.50
25616;DHT22;13482;48.234;13.006;2022-08-19T00:10:36;23.40;67.20
25616;DHT22;13482;48.234;13.006;2022-08-19T00:13:03;23.40;66.50
25616;DHT22;13482;48.234;13.006;2022-08-19T00:15:31;23.40;66.70
25616;DHT22;13482;48.234;13.006;2022-08-19T00:17:58;23.40;66.90
25616;DHT22;13482;48.234;13.006;2022-08-19T00:20:38;23.30;66.90
25616;DHT22;13482;48.234;13.006;2022-08-19T00:23:09;23.30;68.20
25616;DHT22;13482;48.234;13.006;2022-08-19T00:25:36;23.30;67.30
25616;DHT22;13482;48.234;13.006;2022-08-19T00:28:04;23.20;67.30
25616;DHT22;13482;48.234;13.006;2022-08-19T00:30:31;23.20;67.70
25616;DHT22;13482;48.234;13.006;2022-08-19T00:32:59;23.20;67.60
25616;DHT22;13482;48.234;13.006;2022-08-19T00:35:30;23.10;67.60
25616;DHT22;13482;48.234;13.006;2022-08-19T00:38:17;23.10;68.00
25616;DHT22;13482;48.234;13.006;2022-08-19T00:41:04;23.10;68.80
25616;DHT22;13482;48.234;13.006;2022-08-19T00:43:33;23.10;67.80
25616;DHT22;13482;48.234;13.006;2022-08-19T00:46:08;23.10;67.90
25616;DHT22;13482;48.234;13.006;2022-08-19T00:48:36;23.10;68.70
25616;DHT22;13482;48.234;13.006;2022-08-19T00:51:05;23.10;68.10
25616;DHT22;13482;48.234;13.006;2022-08-19T00:53:33;23.10;68.20
25616;DHT22;13482;48.234;13.006;2022-08-19T00:56:02;23.10;68.10
25616;DHT22;13482;48.234;13.006;2022-08-19T00:58:33;23.20;68.20
25616;DHT22;13482;48.234;13.006;2022-08-19T01:01:03;23.20;68.30
25616;DHT22;13482;48.234;13.006;2022-08-19T01:03:31;23.20;68.20
25616;DHT22;13482;48.234;13.006;2022-08-19T01:06:19;23.20;68.20
25616;DHT22;13482;48.234;13.006;2022-08-19T01:08:46;23.30;68.20
25616;DHT22;13482;48.234;13.006;2022-08-19T01:11:16;23.30;68.40
25616;DHT22;13482;48.234;13.006;2022-08-19T01:13:43;23.30;68.50
25616;DHT22;13482;48.234;13.006;2022-08-19T01:16:17;23.30;68.50
25616;DHT22;13482;48.234;13.006;2022-08-19T01:18:46;23.30;68.50
25616;DHT22;13482;48.234;13.006;2022-08-19T01:23:52;23.40;68.80
25616;DHT22;13482;48.234;13.006;2022-08-19T01:26:23;23.40;68.40
25616;DHT22;13482;48.234;13.006;2022-08-19T01:28:55;23.40;68.50
25616;DHT22;13482;48.234;13.006;2022-08-19T01:31:28;23.50;68.50
25616;DHT22;13482;48.234;13.006;2022-08-19T01:34:00;23.50;68.50
25616;DHT22;13482;48.234;13.006;2022-08-19T01:36:35;23.50;68.30
25616;DHT22;13482;48.234;13.006;2022-08-19T01:39:08;23.60;68.60
25616;DHT22;13482;48.234;13.006;2022-08-19T01:41:38;23.60;68.50
25616;DHT22;13482;48.234;13.006;2022-08-19T01:44:06;23.60;68.30
25616;DHT22;13482;48.234;13.006;2022-08-19T01:46:52;23.60;68.50
25616;DHT22;13482;48.234;13.006;2022-08-19T01:49:39;23.70;68.80
25616;DHT22;13482;48.234;13.006;2022-08-19T01:52:07;23.60;68.50
25616;DHT22;13482;48.234;13.006;2022-08-19T01:54:34;23.60;68.50
25616;DHT22;13482;48.234;13.006;2022-08-19T01:57:09;23.60;68.50
25616;DHT22;13482;48.234;13.006;2022-08-19T01:59:40;23.60;68.80
25616;DHT22;13482;48.234;13.006;2022-08-19T02:02:12;23.60;68.50
25616;DHT22;13482;48.234;13.006;2022-08-19T02:04:40;23.70;68.50
25616;DHT22;13482;48.234;13.006;2022-08-19T02:07:08;23.70;68.50
25616;DHT22;13482;48.234;13.006;2022-08-19T02:09:35;23.70;68.50
25616;DHT22;13482;48.234;13.006;2022-08-19T02:12:09;23.70;68.50
25616;DHT22;13482;48.234;13.006;2022-08-19T02:14:36;23.70;69.00
25616;DHT22;13482;48.234;13.006;2022-08-19T02:17:03;23.70;68.60
25616;DHT22;13482;48.234;13.006;2022-08-19T02:19:31;23.70;68.70
25616;DHT22;13482;48.234;13.006;2022-08-19T02:22:18;23.70;68.70
25616;DHT22;13482;48.234;13.006;2022-08-19T02:24:45;23.70;69.10
25616;DHT22;13482;48.234;13.006;2022-08-19T02:27:15;23.70;68.80
25616;DHT22;13482;48.234;13.006;2022-08-19T02:30:00;23.70;68.90
25616;DHT22;13482;48.234;13.006;2022-08-19T02:32:27;23.70;68.90
25616;DHT22;13482;48.234;13.006;2022-08-19T02:34:57;23.60;69.10
25616;DHT22;13482;48.234;13.006;2022-08-19T02:37:24;23.60;69.10
25616;DHT22;13482;48.234;13.006;2022-08-19T02:40:11;23.60;69.00
25616;DHT22;13482;48.234;13.006;2022-08-19T02:42:39;23.60;69.00
25616;DHT22;13482;48.234;13.006;2022-08-19T02:45:07;23.60;69.10
25616;DHT22;13482;48.234;13.006;2022-08-19T02:47:35;23.60;69.20
25616;DHT22;13482;48.234;13.006;2022-08-19T02:50:08;23.70;69.20
25616;DHT22;13482;48.234;13.006;2022-08-19T02:52:36;23.70;69.70
25616;DHT22;13482;48.234;13.006;2022-08-19T02:55:04;23.60;69.40
25616;DHT22;13482;48.234;13.006;2022-08-19T02:57:32;23.60;69.40
25616;DHT22;13482;48.234;13.006;2022-08-19T03:00:00;23.60;69.30
25616;DHT22;13482;48.234;13.006;2022-08-19T03:02:28;23.60;69.40
25616;DHT22;13482;48.234;13.006;2022-08-19T03:04:57;23.60;69.50
25616;DHT22;13482;48.234;13.006;2022-08-19T03:07:24;23.60;69.50
25616;DHT22;13482;48.234;13.006;2022-08-19T03:09:51;23.50;69.50
25616;DHT22;13482;48.234;13.006;2022-08-19T03:12:19;23.60;69.50
25616;DHT22;13482;48.234;13.006;2022-08-19T03:14:46;23.50;69.60
25616;DHT22;13482;48.234;13.006;2022-08-19T03:17:13;23.50;69.60
25616;DHT22;13482;48.234;13.006;2022-08-19T03:19:40;23.50;69.60
25616;DHT22;13482;48.234;13.006;2022-08-19T03:22:07;23.50;69.70
25616;DHT22;13482;48.234;13.006;2022-08-19T03:24:35;23.50;69.60
25616;DHT22;13482;48.234;13.006;2022-08-19T03:27:03;23.60;69.60
25616;DHT22;13482;48.234;13.006;2022-08-19T03:29:31;23.60;69.70
25616;DHT22;13482;48.234;13.006;2022-08-19T03:32:08;23.60;69.70
25616;DHT22;13482;48.234;13.006;2022-08-19T03:35:10;23.60;69.70
25616;DHT22;13482;48.234;13.006;2022-08-19T03:37:37;23.60;69.60
25616;DHT22;13482;48.234;13.006;2022-08-19T03:40:07;23.60;69.50
25616;DHT22;13482;48.234;13.006;2022-08-19T03:42:40;23.60;69.60
25616;DHT22;13482;48.234;13.006;2022-08-19T03:45:25;23.70;69.60
25616;DHT22;13482;48.234;13.006;2022-08-19T03:47:55;23.70;69.60
25616;DHT22;13482;48.234;13.006;2022-08-19T03:50:23;23.70;69.60
25616;DHT22;13482;48.234;13.006;2022-08-19T03:52:51;23.70;69.60
25616;DHT22;13482;48.234;13.006;2022-08-19T03:55:19;23.70;69.70
25616;DHT22;13482;48.234;13.006;2022-08-19T03:57:46;23.70;69.80
25616;DHT22;13482;48.234;13.006;2022-08-19T04:00:15;23.70;69.80
25616;DHT22;13482;48.234;13.006;2022-08-19T04:02:43;23.70;69.80
25616;DHT22;13482;48.234;13.006;2022-08-19T04:05:29;23.70;69.90
25616;DHT22;13482;48.234;13.006;2022-08-19T04:08:07;23.70;70.00
25616;DHT22;13482;48.234;13.006;2022-08-19T04:10:39;23.70;70.60
25616;DHT22;13482;48.234;13.006;2022-08-19T04:13:07;23.70;69.80
25616;DHT22;13482;48.234;13.006;2022-08-19T04:15:39;23.70;69.80
25616;DHT22;13482;48.234;13.006;2022-08-19T04:18:09;23.70;70.00
25616;DHT22;13482;48.234;13.006;2022-08-19T04:20:46;23.70;69.80
25616;DHT22;13482;48.234;13.006;2022-08-19T04:23:20;23.70;70.10
25616;DHT22;13482;48.234;13.006;2022-08-19T04:25:48;23.70;70.00
25616;DHT22;13482;48.234;13.006;2022-08-19T04:28:15;23.70;69.70
25616;DHT22;13482;48.234;13.006;2022-08-19T04:30:48;23.70;69.80
25616;DHT22;13482;48.234;13.006;2022-08-19T04:33:19;23.80;69.80
25616;DHT22;13482;48.234;13.006;2022-08-19T04:35:54;23.80;69.70
25616;DHT22;13482;48.234;13.006;2022-08-19T04:38:22;23.80;69.60
25616;DHT22;13482;48.234;13.006;2022-08-19T04:40:51;23.70;69.70
25616;DHT22;13482;48.234;13.006;2022-08-19T04:43:38;23.70;69.70
25616;DHT22;13482;48.234;13.006;2022-08-19T04:46:11;23.70;69.70
25616;DHT22;13482;48.234;13.006;2022-08-19T04:49:07;23.80;70.00
25616;DHT22;13482;48.234;13.006;2022-08-19T04:51:42;23.80;69.90
25616;DHT22;13482;48.234;13.006;2022-08-19T04:54:23;23.70;69.80
25616;DHT22;13482;48.234;13.006;2022-08-19T04:57:05;23.70;69.70
25616;DHT22;13482;48.234;13.006;2022-08-19T04:59:37;23.70;69.80
25616;DHT22;13482;48.234;13.006;2022-08-19T05:02:07;23.70;69.80
25616;DHT22;13482;48.234;13.006;2022-08-19T05:04:36;23.70;69.90
25616;DHT22;13482;48.234;13.006;2022-08-19T05:07:07;23.70;69.90
25616;DHT22;13482;48.234;13.006;2022-08-19T05:09:34;23.80;70.00
25616;DHT22;13482;48.234;13.006;2022-08-19T05:12:22;23.80;70.00
25616;DHT22;13482;48.234;13.006;2022-08-19T05:14:55;23.80;69.90
25616;DHT22;13482;48.234;13.006;2022-08-19T05:17:29;23.80;70.00
25616;DHT22;13482;48.234;13.006;2022-08-19T05:20:06;23.90;70.20
25616;DHT22;13482;48.234;13.006;2022-08-19T05:22:52;23.90;69.90
25616;DHT22;13482;48.234;13.006;2022-08-19T05:25:21;23.90;69.90
25616;DHT22;13482;48.234;13.006;2022-08-19T05:27:49;24.00;69.90
25616;DHT22;13482;48.234;13.006;2022-08-19T05:30:16;24.00;69.90
25616;DHT22;13482;48.234;13.006;2022-08-19T05:32:59;24.00;69.90
25616;DHT22;13482;48.234;13.006;2022-08-19T05:35:26;24.00;69.90
25616;DHT22;13482;48.234;13.006;2022-08-19T05:38:00;24.00;69.90
25616;DHT22;13482;48.234;13.006;2022-08-19T05:40:27;24.10;69.90
25616;DHT22;13482;48.234;13.006;2022-08-19T05:42:55;24.10;69.90
25616;DHT22;13482;48.234;13.006;2022-08-19T05:45:22;24.10;69.90
25616;DHT22;13482;48.234;13.006;2022-08-19T05:47:49;24.10;69.90
25616;DHT22;13482;48.234;13.006;2022-08-19T05:50:17;24.10;69.80
25616;DHT22;13482;48.234;13.006;2022-08-19T05:52:44;24.10;69.90
25616;DHT22;13482;48.234;13.006;2022-08-19T05:55:20;24.10;70.00
25616;DHT22;13482;48.234;13.006;2022-08-19T05:57:47;24.10;70.00
25616;DHT22;13482;48.234;13.006;2022-08-19T06:00:16;24.10;70.20
25616;DHT22;13482;48.234;13.006;2022-08-19T06:02:49;24.20;70.30
25616;DHT22;13482;48.234;13.006;2022-08-19T06:05:18;24.20;70.40
25616;DHT22;13482;48.234;13.006;2022-08-19T06:07:46;24.20;70.40
25616;DHT22;13482;48.234;13.006;2022-08-19T06:10:14;24.30;70.40
25616;DHT22;13482;48.234;13.006;2022-08-19T06:12:41;24.30;70.40
25616;DHT22;13482;48.234;13.006;2022-08-19T06:15:11;24.30;70.40
25616;DHT22;13482;48.234;13.006;2022-08-19T06:17:40;24.30;70.40
25616;DHT22;13482;48.234;13.006;2022-08-19T06:20:14;24.40;70.40
25616;DHT22;13482;48.234;13.006;2022-08-19T06:22:43;24.50;70.60
25616;DHT22;13482;48.234;13.006;2022-08-19T06:25:14;24.50;70.30
25616;DHT22;13482;48.234;13.006;2022-08-19T06:27:41;24.50;70.30
25616;DHT22;13482;48.234;13.006;2022-08-19T06:30:29;24.50;70.30
25616;DHT22;13482;48.234;13.006;2022-08-19T06:32:57;24.60;70.40
25616;DHT22;13482;48.234;13.006;2022-08-19T06:35:25;24.60;70.40
25616;DHT22;13482;48.234;13.006;2022-08-19T06:37:52;24.60;70.30
25616;DHT22;13482;48.234;13.006;2022-08-19T06:40:21;24.70;70.20
25616;DHT22;13482;48.234;13.006;2022-08-19T06:42:48;24.70;70.20
25616;DHT22;13482;48.234;13.006;2022-08-19T06:45:21;24.80;70.10
25616;DHT22;13482;48.234;13.006;2022-08-19T06:48:02;24.80;70.10
25616;DHT22;13482;48.234;13.006;2022-08-19T06:50:29;24.90;70.10
25616;DHT22;13482;48.234;13.006;2022-08-19T06:52:56;24.90;70.30
25616;DHT22;13482;48.234;13.006;2022-08-19T06:55:30;25.00;70.20
25616;DHT22;13482;48.234;13.006;2022-08-19T06:58:02;25.10;70.20
25616;DHT22;13482;48.234;13.006;2022-08-19T07:00:30;25.20;70.10
25616;DHT22;13482;48.234;13.006;2022-08-19T07:02:58;25.20;69.90
25616;DHT22;13482;48.234;13.006;2022-08-19T07:05:43;25.30;69.70
25616;DHT22;13482;48.234;13.006;2022-08-19T07:08:12;25.40;69.60
25616;DHT22;13482;48.234;13.006;2022-08-19T07:10:43;25.40;69.40
25616;DHT22;13482;48.234;13.006;2022-08-19T07:13:11;25.50;69.30
25616;DHT22;13482;48.234;13.006;2022-08-19T07:15:39;25.50;69.20
25616;DHT22;13482;48.234;13.006;2022-08-19T07:18:06;25.50;69.20
25616;DHT22;13482;48.234;13.006;2022-08-19T07:20:38;25.50;69.20
25616;DHT22;13482;48.234;13.006;2022-08-19T07:23:07;25.50;69.20
25616;DHT22;13482;48.234;13.006;2022-08-19T07:25:41;25.60;69.20
25616;DHT22;13482;48.234;13.006;2022-08-19T07:28:10;25.60;69.20
25616;DHT22;13482;48.234;13.006;2022-08-19T07:30:50;25.70;69.10
25616;DHT22;13482;48.234;13.006;2022-08-19T07:33:22;25.80;69.10
25616;DHT22;13482;48.234;13.006;2022-08-19T07:36:09;25.90;69.10
25616;DHT22;13482;48.234;13.006;2022-08-19T07:38:43;26.00;69.00
25616;DHT22;13482;48.234;13.006;2022-08-19T07:41:13;26.00;68.60
25616;DHT22;13482;48.234;13.006;2022-08-19T07:43:43;26.10;68.50
25616;DHT22;13482;48.234;13.006;2022-08-19T07:46:11;26.20;68.40
25616;DHT22;13482;48.234;13.006;2022-08-19T07:48:42;26.20;68.40
25616;DHT22;13482;48.234;13.006;2022-08-19T07:51:16;26.30;68.20
25616;DHT22;13482;48.234;13.006;2022-08-19T07:54:03;26.30;68.00
25616;DHT22;13482;48.234;13.006;2022-08-19T07:56:30;26.30;67.90
25616;DHT22;13482;48.234;13.006;2022-08-19T07:58:57;26.40;67.90
25616;DHT22;13482;48.234;13.006;2022-08-19T08:01:26;26.40;67.80
25616;DHT22;13482;48.234;13.006;2022-08-19T08:03:56;26.40;68.00
25616;DHT22;13482;48.234;13.006;2022-08-19T08:06:42;26.40;68.00
25616;DHT22;13482;48.234;13.006;2022-08-19T08:09:32;26.50;68.00
25616;DHT22;13482;48.234;13.006;2022-08-19T08:12:30;26.50;67.80
25616;DHT22;13482;48.234;13.006;2022-08-19T08:15:13;26.60;67.80
25616;DHT22;13482;48.234;13.006;2022-08-19T08:17:43;26.60;67.80
25616;DHT22;13482;48.234;13.006;2022-08-19T08:20:18;26.70;67.80
25616;DHT22;13482;48.234;13.006;2022-08-19T08:22:47;26.70;67.70
25616;DHT22;13482;48.234;13.006;2022-08-19T08:25:34;26.70;67.60
25616;DHT22;13482;48.234;13.006;2022-08-19T08:28:03;26.80;67.60
25616;DHT22;13482;48.234;13.006;2022-08-19T08:30:31;26.80;67.50
25616;DHT22;13482;48.234;13.006;2022-08-19T08:33:03;26.80;67.50
25616;DHT22;13482;48.234;13.006;2022-08-19T08:35:31;26.90;67.40
25616;DHT22;13482;48.234;13.006;2022-08-19T08:38:00;26.90;67.30
25616;DHT22;13482;48.234;13.006;2022-08-19T08:43:51;27.00;67.10
25616;DHT22;13482;48.234;13.006;2022-08-19T08:46:32;27.10;67.20
25616;DHT22;13482;48.234;13.006;2022-08-19T08:49:18;27.10;67.30
25616;DHT22;13482;48.234;13.006;2022-08-19T08:55:03;27.30;67.00
25616;DHT22;13482;48.234;13.006;2022-08-19T08:57:52;27.30;66.90
25616;DHT22;13482;48.234;13.006;2022-08-19T09:02:50;27.40;66.60
25616;DHT22;13482;48.234;13.006;2022-08-19T09:05:19;27.50;66.50
25616;DHT22;13482;48.234;13.006;2022-08-19T09:08:10;27.50;66.50
25616;DHT22;13482;48.234;13.006;2022-08-19T09:10:52;27.60;66.40
25616;DHT22;13482;48.234;13.006;2022-08-19T09:16:28;27.80;66.90
25616;DHT22;13482;48.234;13.006;2022-08-19T09:19:01;28.00;67.10
25616;DHT22;13482;48.234;13.006;2022-08-19T09:21:32;28.20;66.50
25616;DHT22;13482;48.234;13.006;2022-08-19T09:24:02;28.30;66.20
25616;DHT22;13482;48.234;13.006;2022-08-19T09:26:32;28.40;65.80
25616;DHT22;13482;48.234;13.006;2022-08-19T09:29:14;28.50;65.20
25616;DHT22;13482;48.234;13.006;2022-08-19T09:31:43;28.60;65.40
25616;DHT22;13482;48.234;13.006;2022-08-19T09:34:10;28.70;65.50
25616;DHT22;13482;48.234;13.006;2022-08-19T09:36:47;28.80;65.50
25616;DHT22;13482;48.234;13.006;2022-08-19T09:39:21;29.00;65.70
25616;DHT22;13482;48.234;13.006;2022-08-19T09:41:48;29.20;65.70
25616;DHT22;13482;48.234;13.006;2022-08-19T09:44:17;29.40;65.70
25616;DHT22;13482;48.234;13.006;2022-08-19T09:46:56;29.60;65.30
25616;DHT22;13482;48.234;13.006;2022-08-19T09:49:23;29.90;64.30
25616;DHT22;13482;48.234;13.006;2022-08-19T09:51:51;30.00;64.80
25616;DHT22;13482;48.234;13.006;2022-08-19T09:54:31;30.20;64.30
25616;DHT22;13482;48.234;13.006;2022-08-19T09:57:05;30.50;63.60
25616;DHT22;13482;48.234;13.006;2022-08-19T09:59:33;30.60;63.70
25616;DHT22;13482;48.234;13.006;2022-08-19T10:02:02;30.70;63.50
25616;DHT22;13482;48.234;13.006;2022-08-19T10:04:37;30.80;62.90
25616;DHT22;13482;48.234;13.006;2022-08-19T10:07:33;30.80;62.50
25616;DHT22;13482;48.234;13.006;2022-08-19T10:10:06;30.80;62.00
25616;DHT22;13482;48.234;13.006;2022-08-19T10:12:33;30.80;61.40
25616;DHT22;13482;48.234;13.006;2022-08-19T10:15:01;30.70;60.70
25616;DHT22;13482;48.234;13.006;2022-08-19T10:17:30;30.70;62.00
25616;DHT22;13482;48.234;13.006;2022-08-19T10:20:00;30.60;61.90
25616;DHT22;13482;48.234;13.006;2022-08-19T10:22:29;30.60;62.10
25616;DHT22;13482;48.234;13.006;2022-08-19T10:24:57;30.70;61.70
25616;DHT22;13482;48.234;13.006;2022-08-19T10:27:31;30.70;61.60
25616;DHT22;13482;48.234;13.006;2022-08-19T10:29:58;30.70;61.60
25616;DHT22;13482;48.234;13.006;2022-08-19T10:32:26;30.70;61.60
25616;DHT22;13482;48.234;13.006;2022-08-19T10:35:00;30.80;61.40
25616;DHT22;13482;48.234;13.006;2022-08-19T10:37:31;30.90;61.40
25616;DHT22;13482;48.234;13.006;2022-08-19T10:40:00;30.90;61.50
25616;DHT22;13482;48.234;13.006;2022-08-19T10:42:29;31.00;61.60
25616;DHT22;13482;48.234;13.006;2022-08-19T10:44:57;31.20;61.40
25616;DHT22;13482;48.234;13.006;2022-08-19T10:47:26;31.30;61.20
25616;DHT22;13482;48.234;13.006;2022-08-19T10:49:57;31.50;61.00
25616;DHT22;13482;48.234;13.006;2022-08-19T10:52:48;31.60;60.70
25616;DHT22;13482;48.234;13.006;2022-08-19T10:55:21;31.70;60.20
25616;DHT22;13482;48.234;13.006;2022-08-19T10:58:14;31.80;59.80
25616;DHT22;13482;48.234;13.006;2022-08-19T11:00:52;31.90;59.80
25616;DHT22;13482;48.234;13.006;2022-08-19T11:03:22;32.00;59.50
25616;DHT22;13482;48.234;13.006;2022-08-19T11:06:08;32.10;59.80
25616;DHT22;13482;48.234;13.006;2022-08-19T11:08:36;32.20;58.80
25616;DHT22;13482;48.234;13.006;2022-08-19T11:11:05;32.20;59.50
25616;DHT22;13482;48.234;13.006;2022-08-19T11:13:39;32.30;59.10
25616;DHT22;13482;48.234;13.006;2022-08-19T11:16:14;32.30;59.00
25616;DHT22;13482;48.234;13.006;2022-08-19T11:18:55;32.30;58.60
25616;DHT22;13482;48.234;13.006;2022-08-19T11:21:32;32.20;58.80
25616;DHT22;13482;48.234;13.006;2022-08-19T11:24:14;32.20;58.80
25616;DHT22;13482;48.234;13.006;2022-08-19T11:26:48;32.30;58.50
25616;DHT22;13482;48.234;13.006;2022-08-19T11:29:20;32.30;58.60
25616;DHT22;13482;48.234;13.006;2022-08-19T11:31:49;32.30;58.40
25616;DHT22;13482;48.234;13.006;2022-08-19T11:34:21;32.30;58.30
25616;DHT22;13482;48.234;13.006;2022-08-19T11:36:50;32.30;58.00
25616;DHT22;13482;48.234;13.006;2022-08-19T11:39:20;32.30;58.00
25616;DHT22;13482;48.234;13.006;2022-08-19T11:41:48;32.30;58.20
25616;DHT22;13482;48.234;13.006;2022-08-19T11:44:15;32.30;57.90
25616;DHT22;13482;48.234;13.006;2022-08-19T11:46:45;32.30;57.80
25616;DHT22;13482;48.234;13.006;2022-08-19T11:49:15;32.30;57.80
25616;DHT22;13482;48.234;13.006;2022-08-19T11:51:43;32.30;57.90
25616;DHT22;13482;48.234;13.006;2022-08-19T11:54:12;32.30;58.00
25616;DHT22;13482;48.234;13.006;2022-08-19T11:56:46;32.30;58.10
25616;DHT22;13482;48.234;13.006;2022-08-19T11:59:14;32.30;57.70
25616;DHT22;13482;48.234;13.006;2022-08-19T12:01:42;32.30;58.00
25616;DHT22;13482;48.234;13.006;2022-08-19T12:04:10;32.40;57.90
25616;DHT22;13482;48.234;13.006;2022-08-19T12:06:39;32.40;57.60
25616;DHT22;13482;48.234;13.006;2022-08-19T12:09:09;32.40;57.60
25616;DHT22;13482;48.234;13.006;2022-08-19T12:11:38;32.40;57.10
25616;DHT22;13482;48.234;13.006;2022-08-19T12:14:06;32.40;57.20
25616;DHT22;13482;48.234;13.006;2022-08-19T12:16:40;32.40;57.10
25616;DHT22;13482;48.234;13.006;2022-08-19T12:19:16;32.40;57.10
25616;DHT22;13482;48.234;13.006;2022-08-19T12:21:48;32.50;57.10
25616;DHT22;13482;48.234;13.006;2022-08-19T12:24:16;32.50;57.10
25616;DHT22;13482;48.234;13.006;2022-08-19T12:26:50;32.60;57.40
25616;DHT22;13482;48.234;13.006;2022-08-19T12:29:26;32.60;57.40
25616;DHT22;13482;48.234;13.006;2022-08-19T12:31:57;32.70;57.50
25616;DHT22;13482;48.234;13.006;2022-08-19T12:34:30;32.80;57.10
25616;DHT22;13482;48.234;13.006;2022-08-19T12:37:02;32.90;57.10
25616;DHT22;13482;48.234;13.006;2022-08-19T12:39:54;33.00;56.60
25616;DHT22;13482;48.234;13.006;2022-08-19T12:42:21;33.10;56.30
25616;DHT22;13482;48.234;13.006;2022-08-19T12:44:49;33.20;56.80
25616;DHT22;13482;48.234;13.006;2022-08-19T12:47:18;33.20;56.60
25616;DHT22;13482;48.234;13.006;2022-08-19T12:49:45;33.30;56.50
25616;DHT22;13482;48.234;13.006;2022-08-19T12:52:25;33.40;56.50
25616;DHT22;13482;48.234;13.006;2022-08-19T12:54:55;33.50;56.00
25616;DHT22;13482;48.234;13.006;2022-08-19T12:57:25;33.60;55.60
25616;DHT22;13482;48.234;13.006;2022-08-19T13:00:10;33.60;55.00
25616;DHT22;13482;48.234;13.006;2022-08-19T13:02:42;33.70;54.20
25616;DHT22;13482;48.234;13.006;2022-08-19T13:05:18;33.70;55.40
25616;DHT22;13482;48.234;13.006;2022-08-19T13:07:51;33.70;54.90
25616;DHT22;13482;48.234;13.006;2022-08-19T13:10:23;33.80;55.80
25616;DHT22;13482;48.234;13.006;2022-08-19T13:12:51;34.00;56.00
25616;DHT22;13482;48.234;13.006;2022-08-19T13:15:35;34.10;55.50
25616;DHT22;13482;48.234;13.006;2022-08-19T13:18:29;34.30;54.80
25616;DHT22;13482;48.234;13.006;2022-08-19T13:20:56;34.40;53.60
25616;DHT22;13482;48.234;13.006;2022-08-19T13:23:23;34.40;54.30
25616;DHT22;13482;48.234;13.006;2022-08-19T13:26:01;34.30;54.10
25616;DHT22;13482;48.234;13.006;2022-08-19T13:28:33;34.20;53.70
25616;DHT22;13482;48.234;13.006;2022-08-19T13:31:21;34.00;53.90
25616;DHT22;13482;48.234;13.006;2022-08-19T13:34:08;33.80;53.60
25616;DHT22;13482;48.234;13.006;2022-08-19T13:36:36;33.60;53.80
25616;DHT22;13482;48.234;13.006;2022-08-19T13:39:06;33.40;53.90
25616;DHT22;13482;48.234;13.006;2022-08-19T13:41:35;33.20;54.00
25616;DHT22;13482;48.234;13.006;2022-08-19T13:44:04;33.10;54.10
25616;DHT22;13482;48.234;13.006;2022-08-19T13:46:33;32.90;54.20
25616;DHT22;13482;48.234;13.006;2022-08-19T13:49:07;32.70;54.30
25616;DHT22;13482;48.234;13.006;2022-08-19T13:51:35;32.60;54.10
25616;DHT22;13482;48.234;13.006;2022-08-19T13:54:06;32.50;54.30
25616;DHT22;13482;48.234;13.006;2022-08-19T13:56:39;32.30;54.50
25616;DHT22;13482;48.234;13.006;2022-08-19T13:59:08;32.20;54.70
25616;DHT22;13482;48.234;13.006;2022-08-19T14:01:36;32.10;55.00
25616;DHT22;13482;48.234;13.006;2022-08-19T14:04:06;32.00;55.00
25616;DHT22;13482;48.234;13.006;2022-08-19T14:06:34;31.90;55.10
25616;DHT22;13482;48.234;13.006;2022-08-19T14:09:02;31.80;55.10
25616;DHT22;13482;48.234;13.006;2022-08-19T14:11:29;31.70;55.20
25616;DHT22;13482;48.234;13.006;2022-08-19T14:13:57;31.60;55.20
25616;DHT22;13482;48.234;13.006;2022-08-19T14:16:24;31.60;55.30
25616;DHT22;13482;48.234;13.006;2022-08-19T14:18:51;31.60;55.60
25616;DHT22;13482;48.234;13.006;2022-08-19T14:21:22;31.50;55.60
25616;DHT22;13482;48.234;13.006;2022-08-19T14:23:50;31.60;55.60
25616;DHT22;13482;48.234;13.006;2022-08-19T14:26:19;31.50;55.70
25616;DHT22;13482;48.234;13.006;2022-08-19T14:28:47;31.60;55.60
25616;DHT22;13482;48.234;13.006;2022-08-19T14:31:17;31.60;55.70
25616;DHT22;13482;48.234;13.006;2022-08-19T14:33:49;31.80;56.60
25616;DHT22;13482;48.234;13.006;2022-08-19T14:36:18;32.00;57.10
25616;DHT22;13482;48.234;13.006;2022-08-19T14:38:48;32.20;56.70
25616;DHT22;13482;48.234;13.006;2022-08-19T14:41:21;32.50;56.60
25616;DHT22;13482;48.234;13.006;2022-08-19T14:43:51;32.80;56.40
25616;DHT22;13482;48.234;13.006;2022-08-19T14:46:21;33.00;56.20
25616;DHT22;13482;48.234;13.006;2022-08-19T14:49:11;33.30;56.00
25616;DHT22;13482;48.234;13.006;2022-08-19T14:51:38;33.60;54.70
25616;DHT22;13482;48.234;13.006;2022-08-19T14:54:06;33.80;55.00
25616;DHT22;13482;48.234;13.006;2022-08-19T14:56:34;34.00;54.80
25616;DHT22;13482;48.234;13.006;2022-08-19T14:59:01;34.20;54.60
25616;DHT22;13482;48.234;13.006;2022-08-19T15:01:29;34.40;54.20
25616;DHT22;13482;48.234;13.006;2022-08-19T15:03:56;34.60;53.50
25616;DHT22;13482;48.234;13.006;2022-08-19T15:06:25;34.70;53.20
25616;DHT22;13482;48.234;13.006;2022-08-19T15:08:53;34.80;53.00
25616;DHT22;13482;48.234;13.006;2022-08-19T15:11:23;34.90;52.90
25616;DHT22;13482;48.234;13.006;2022-08-19T15:13:57;34.90;53.10
25616;DHT22;13482;48.234;13.006;2022-08-19T15:16:25;35.00;52.90
25616;DHT22;13482;48.234;13.006;2022-08-19T15:19:03;35.00;52.90
25616;DHT22;13482;48.234;13.006;2022-08-19T15:21:35;35.00;52.70
25616;DHT22;13482;48.234;13.006;2022-08-19T15:24:03;35.00;52.70
25616;DHT22;13482;48.234;13.006;2022-08-19T15:26:31;34.90;52.60
25616;DHT22;13482;48.234;13.006;2022-08-19T15:29:03;34.90;52.60
25616;DHT22;13482;48.234;13.006;2022-08-19T15:31:31;34.80;52.30
25616;DHT22;13482;48.234;13.006;2022-08-19T15:34:04;34.70;52.50
25616;DHT22;13482;48.234;13.006;2022-08-19T15:36:33;34.50;52.40
25616;DHT22;13482;48.234;13.006;2022-08-19T15:39:02;34.30;52.50
25616;DHT22;13482;48.234;13.006;2022-08-19T15:41:31;34.10;52.50
25616;DHT22;13482;48.234;13.006;2022-08-19T15:44:02;33.90;52.50
25616;DHT22;13482;48.234;13.006;2022-08-19T15:46:31;33.70;52.70
25616;DHT22;13482;48.234;13.006;2022-08-19T15:48:59;33.60;52.90
25616;DHT22;13482;48.234;13.006;2022-08-19T15:51:28;33.40;52.80
25616;DHT22;13482;48.234;13.006;2022-08-19T15:53:58;33.10;52.70
25616;DHT22;13482;48.234;13.006;2022-08-19T15:56:26;32.60;53.00
25616;DHT22;13482;48.234;13.006;2022-08-19T15:59:25;32.20;53.20